createdAt,value
2018-02-10T00:01:56.362Z,2.50
2018-02-10T00:04:23.912Z,2.60
2018-02-10T00:06:51.376Z,2.70
2018-02-10T00:09:19.070Z,2.70
2018-02-10T00:11:46.551Z,2.70
2018-02-10T00:14:14.100Z,2.80
2018-02-10T00:16:41.667Z,2.80
2018-02-10T00:19:09.172Z,2.80
2018-02-10T00:21:37.431Z,2.80
2018-02-10T00:24:04.896Z,2.70
2018-02-10T00:26:32.392Z,2.70
2018-02-10T00:28:59.905Z,2.70
2018-02-10T00:31:28.137Z,2.70
2018-02-10T00:33:57.111Z,2.70
2018-02-10T00:36:24.592Z,2.70
2018-02-10T00:38:52.065Z,2.70
2018-02-10T00:41:19.631Z,2.70
2018-02-10T00:43:47.089Z,2.70
2018-02-10T00:46:14.551Z,2.70
2018-02-10T00:48:42.031Z,2.70
2018-02-10T00:51:09.491Z,2.70
2018-02-10T00:53:36.963Z,2.70
2018-02-10T00:56:04.459Z,2.70
2018-02-10T00:58:31.924Z,2.70
2018-02-10T01:00:59.496Z,2.80
2018-02-10T01:03:26.956Z,2.70
2018-02-10T01:05:54.420Z,2.70
2018-02-10T01:08:21.900Z,2.70
2018-02-10T01:10:49.375Z,2.70
2018-02-10T01:13:16.863Z,2.70
2018-02-10T01:15:44.373Z,2.70
2018-02-10T01:18:11.887Z,2.70
2018-02-10T01:20:39.348Z,2.60
2018-02-10T01:23:06.816Z,2.70
2018-02-10T01:25:34.303Z,2.60
2018-02-10T01:28:01.788Z,2.60
2018-02-10T01:30:29.363Z,2.60
2018-02-10T01:32:56.820Z,2.50
2018-02-10T01:35:24.384Z,2.50
2018-02-10T01:37:51.961Z,2.50
2018-02-10T01:40:19.525Z,2.50
2018-02-10T01:42:47.191Z,2.40
2018-02-10T01:45:14.660Z,2.40
2018-02-10T01:47:42.128Z,2.40
2018-02-10T01:50:21.589Z,2.40
2018-02-10T01:52:49.171Z,2.40
2018-02-10T01:55:16.619Z,2.50
2018-02-10T01:57:44.108Z,2.50
2018-02-10T02:00:11.588Z,2.60
2018-02-10T02:02:39.152Z,2.60
2018-02-10T02:05:06.683Z,2.70
2018-02-10T02:07:34.900Z,2.80
2018-02-10T02:10:02.468Z,2.80
2018-02-10T02:12:29.936Z,2.90
2018-02-10T02:14:57.396Z,2.90
2018-02-10T02:17:24.868Z,2.90
2018-02-10T02:19:52.352Z,3.00
2018-02-10T02:22:19.832Z,3.00
2018-02-10T02:24:47.386Z,3.10
2018-02-10T02:27:14.856Z,3.10
2018-02-10T02:29:42.429Z,3.20
2018-02-10T02:32:09.896Z,3.20
2018-02-10T02:34:37.388Z,3.20
2018-02-10T02:37:04.853Z,3.20
2018-02-10T02:39:32.413Z,3.20
2018-02-10T02:41:59.876Z,3.20
2018-02-10T02:44:27.357Z,3.10
2018-02-10T02:46:54.933Z,3.10
2018-02-10T02:49:22.405Z,3.10
2018-02-10T02:51:49.876Z,3.10
2018-02-10T02:54:17.428Z,3.20
2018-02-10T02:56:44.895Z,3.20
2018-02-10T02:59:12.419Z,3.10
2018-02-10T03:01:40.659Z,3.10
2018-02-10T03:04:08.124Z,3.10
2018-02-10T03:06:35.604Z,3.20
2018-02-10T03:09:03.271Z,3.10
2018-02-10T03:11:30.841Z,3.10
2018-02-10T03:13:58.416Z,3.20
2018-02-10T03:16:26.100Z,3.20
2018-02-10T03:18:53.665Z,3.20
2018-02-10T03:21:21.137Z,3.10
2018-02-10T03:23:48.637Z,3.10
2018-02-10T03:26:16.887Z,3.20
2018-02-10T03:28:44.364Z,3.20
2018-02-10T03:31:11.845Z,3.30
2018-02-10T03:33:39.404Z,3.30
2018-02-10T03:36:06.864Z,3.30
2018-02-10T03:38:34.335Z,3.30
2018-02-10T03:41:01.816Z,3.30
2018-02-10T03:43:29.271Z,3.30
2018-02-10T03:45:56.732Z,3.30
2018-02-10T03:48:24.213Z,3.30
2018-02-10T03:50:51.679Z,3.40
2018-02-10T03:53:19.360Z,3.40
2018-02-10T03:55:46.936Z,3.40
2018-02-10T03:58:14.396Z,3.50
2018-02-10T04:00:41.980Z,3.50
2018-02-10T04:03:09.444Z,3.50
2018-02-10T04:05:36.908Z,3.50
2018-02-10T04:08:04.383Z,3.50
2018-02-10T04:10:31.856Z,3.50
2018-02-10T04:12:59.333Z,3.50
2018-02-10T04:15:26.792Z,3.60
2018-02-10T04:17:54.264Z,3.60
2018-02-10T04:20:21.844Z,3.50
2018-02-10T04:22:49.301Z,3.60
2018-02-10T04:25:16.777Z,3.60
2018-02-10T04:27:44.289Z,3.60
2018-02-10T04:30:12.529Z,3.50
2018-02-10T04:32:40.103Z,3.40
2018-02-10T04:35:07.568Z,3.40
2018-02-10T04:37:35.028Z,3.40
2018-02-10T04:40:02.816Z,3.40
2018-02-10T04:42:30.273Z,3.40
2018-02-10T04:44:57.735Z,3.40
2018-02-10T04:47:25.200Z,3.40
2018-02-10T04:49:52.672Z,3.30
2018-02-10T04:52:20.136Z,3.30
2018-02-10T04:54:47.652Z,3.20
2018-02-10T04:57:15.108Z,3.20
2018-02-10T04:59:42.592Z,3.20
2018-02-10T05:02:10.052Z,3.20
2018-02-10T05:04:37.515Z,3.20
2018-02-10T05:07:04.980Z,3.30
2018-02-10T05:09:32.554Z,3.20
2018-02-10T05:12:00.033Z,3.30
2018-02-10T05:14:27.493Z,3.30
2018-02-10T05:16:55.076Z,3.30
2018-02-10T05:19:22.636Z,3.40
2018-02-10T05:21:50.228Z,3.40
2018-02-10T05:24:17.708Z,3.30
2018-02-10T05:26:45.964Z,3.40
2018-02-10T05:29:13.636Z,3.40
2018-02-10T05:31:41.111Z,3.40
2018-02-10T05:34:08.579Z,3.40
2018-02-10T05:36:36.149Z,3.40
2018-02-10T05:39:03.613Z,3.40
2018-02-10T05:41:31.084Z,3.40
2018-02-10T05:43:58.555Z,3.30
2018-02-10T05:46:26.045Z,3.30
2018-02-10T05:48:53.599Z,3.30
2018-02-10T05:51:21.080Z,3.30
2018-02-10T05:53:48.649Z,3.40
2018-02-10T05:56:16.124Z,3.30
2018-02-10T05:58:43.692Z,3.30
2018-02-10T06:01:11.153Z,3.30
2018-02-10T06:03:38.612Z,3.30
2018-02-10T06:06:06.092Z,3.30
2018-02-10T06:08:33.556Z,3.40
2018-02-10T06:11:01.024Z,3.40
2018-02-10T06:13:28.704Z,3.40
2018-02-10T06:15:56.165Z,3.40
2018-02-10T06:18:23.644Z,3.40
2018-02-10T06:20:51.123Z,3.40
2018-02-10T06:23:18.611Z,3.40
2018-02-10T06:25:46.836Z,3.50
2018-02-10T06:28:14.340Z,3.40
2018-02-10T06:30:41.924Z,3.50
2018-02-10T06:33:09.584Z,3.40
2018-02-10T06:35:37.055Z,3.40
2018-02-10T06:38:04.548Z,3.40
2018-02-10T06:40:32.097Z,3.40
2018-02-10T06:42:59.576Z,3.40
2018-02-10T06:45:28.672Z,3.30
2018-02-10T06:47:56.256Z,3.30
2018-02-10T06:50:23.870Z,3.40
2018-02-10T06:52:52.120Z,3.40
2018-02-10T06:55:20.439Z,3.50
2018-02-10T06:57:48.692Z,3.40
2018-02-10T07:00:16.156Z,3.40
2018-02-10T07:02:43.725Z,3.40
2018-02-10T07:05:11.209Z,3.40
2018-02-10T07:07:38.676Z,3.40
2018-02-10T07:10:06.136Z,3.50
2018-02-10T07:12:33.605Z,3.50
2018-02-10T07:15:01.188Z,3.50
2018-02-10T07:17:28.748Z,3.50
2018-02-10T07:19:56.319Z,3.50
2018-02-10T07:22:23.785Z,3.50
2018-02-10T07:24:51.271Z,3.60
2018-02-10T07:27:18.740Z,3.60
2018-02-10T07:29:46.224Z,3.70
2018-02-10T07:32:13.779Z,3.70
2018-02-10T07:34:41.252Z,3.70
2018-02-10T07:37:08.733Z,3.70
2018-02-10T07:39:36.284Z,3.70
2018-02-10T07:42:03.855Z,3.70
2018-02-10T07:44:31.441Z,3.70
2018-02-10T07:46:59.000Z,3.80
2018-02-10T07:49:26.464Z,3.80
2018-02-10T07:51:53.956Z,3.80
2018-02-10T07:54:21.420Z,3.80
2018-02-10T07:56:48.880Z,3.90
2018-02-10T07:59:16.391Z,3.90
2018-02-10T08:01:44.649Z,4.00
2018-02-10T08:04:12.128Z,3.90
2018-02-10T08:06:39.688Z,4.00
2018-02-10T08:09:07.160Z,4.00
2018-02-10T08:11:34.624Z,4.00
2018-02-10T08:14:02.192Z,4.00
2018-02-10T08:16:29.664Z,3.90
2018-02-10T08:18:57.124Z,3.90
2018-02-10T08:21:24.708Z,4.00
2018-02-10T08:23:52.988Z,4.00
2018-02-10T08:26:20.448Z,4.00
2018-02-10T08:28:47.932Z,4.00
2018-02-10T08:31:15.416Z,4.10
2018-02-10T08:33:43.668Z,4.10
2018-02-10T08:36:11.160Z,4.10
2018-02-10T08:38:38.722Z,4.10
2018-02-10T08:41:06.201Z,4.20
2018-02-10T08:43:33.658Z,4.20
2018-02-10T08:46:01.234Z,4.20
2018-02-10T08:48:29.468Z,4.20
2018-02-10T08:50:57.002Z,4.20
2018-02-10T08:53:24.484Z,4.20
2018-02-10T08:55:52.135Z,4.20
2018-02-10T08:58:19.708Z,4.20
2018-02-10T09:00:47.172Z,4.20
2018-02-10T09:03:14.648Z,4.20
2018-02-10T09:05:42.215Z,4.30
2018-02-10T09:08:09.692Z,4.30
2018-02-10T09:10:37.267Z,4.30
2018-02-10T09:13:04.836Z,4.30
2018-02-10T09:15:32.404Z,4.30
2018-02-10T09:17:59.879Z,4.20
2018-02-10T09:20:27.529Z,4.30
2018-02-10T09:22:55.016Z,4.20
2018-02-10T09:25:22.476Z,4.20
2018-02-10T09:27:49.956Z,4.20
2018-02-10T09:30:17.428Z,4.30
2018-02-10T09:32:44.934Z,4.40
2018-02-10T09:35:13.176Z,4.50
2018-02-10T09:37:40.644Z,4.50
2018-02-10T09:40:08.132Z,4.50
2018-02-10T09:42:35.692Z,4.50
2018-02-10T09:45:03.158Z,4.60
2018-02-10T09:47:30.736Z,4.50
2018-02-10T09:49:58.198Z,4.40
2018-02-10T09:52:25.672Z,4.50
2018-02-10T09:54:53.136Z,4.50
2018-02-10T09:57:20.603Z,4.30
2018-02-10T09:59:48.084Z,4.10
2018-02-10T10:02:15.556Z,4.10
2018-02-10T10:04:43.128Z,4.00
2018-02-10T10:07:10.592Z,3.90
2018-02-10T10:09:38.076Z,4.00
2018-02-10T10:12:05.536Z,3.90
2018-02-10T10:14:32.993Z,3.80
2018-02-10T10:17:00.464Z,3.90
2018-02-10T10:19:27.951Z,3.80
2018-02-10T10:21:55.420Z,3.80
2018-02-10T10:24:22.992Z,3.70
2018-02-10T10:26:50.468Z,3.80
2018-02-10T10:29:17.929Z,3.80
2018-02-10T10:31:46.920Z,3.70
2018-02-10T10:34:14.389Z,3.70
2018-02-10T10:36:41.864Z,3.70
2018-02-10T10:39:09.436Z,3.60
2018-02-10T10:41:36.908Z,3.70
2018-02-10T10:44:04.379Z,3.70
2018-02-10T10:46:31.876Z,3.80
2018-02-10T10:49:00.144Z,3.70
2018-02-10T10:51:27.612Z,3.70
2018-02-10T10:53:55.173Z,3.70
2018-02-10T10:56:22.671Z,3.60
2018-02-10T10:58:50.900Z,3.50
2018-02-10T11:01:18.367Z,3.50
2018-02-10T11:03:45.977Z,3.50
2018-02-10T11:06:14.180Z,3.60
2018-02-10T11:08:41.640Z,3.50
2018-02-10T11:11:09.108Z,3.50
2018-02-10T11:13:36.580Z,3.60
2018-02-10T11:16:04.092Z,3.60
2018-02-10T11:18:31.569Z,3.70
2018-02-10T11:20:59.130Z,3.80
2018-02-10T11:23:27.368Z,3.80
2018-02-10T11:25:54.940Z,3.70
2018-02-10T11:28:22.458Z,3.80
2018-02-10T11:30:49.885Z,3.90
2018-02-10T11:33:17.352Z,4.00
2018-02-10T11:35:44.828Z,3.90
2018-02-10T11:38:12.404Z,4.00
2018-02-10T11:40:39.904Z,4.00
2018-02-10T11:43:07.480Z,4.00
2018-02-10T11:45:35.717Z,4.00
2018-02-10T11:48:03.188Z,4.00
2018-02-10T11:50:30.651Z,4.00
2018-02-10T11:52:58.139Z,4.00
2018-02-10T11:55:25.600Z,4.10
2018-02-10T11:57:53.060Z,4.10
2018-02-10T12:00:20.640Z,4.20
2018-02-10T12:02:48.115Z,4.10
2018-02-10T12:05:15.682Z,4.20
2018-02-10T12:07:43.139Z,4.20
2018-02-10T12:10:10.618Z,4.20
2018-02-10T12:12:38.073Z,4.10
2018-02-10T12:15:05.540Z,4.20
2018-02-10T12:17:32.998Z,4.20
2018-02-10T12:20:00.527Z,4.20
2018-02-10T12:22:27.943Z,4.20
2018-02-10T12:24:55.453Z,4.20
2018-02-10T12:27:22.919Z,4.20
2018-02-10T12:29:50.384Z,4.30
2018-02-10T12:32:18.744Z,4.30
2018-02-10T12:34:46.204Z,4.30
2018-02-10T12:37:13.668Z,4.30
2018-02-10T12:39:41.176Z,4.30
2018-02-10T12:42:08.748Z,4.30
2018-02-10T12:44:36.216Z,4.30
2018-02-10T12:47:03.801Z,4.20
2018-02-10T12:49:32.279Z,4.20
2018-02-10T12:51:59.740Z,4.20
2018-02-10T12:54:27.223Z,4.20
2018-02-10T12:56:54.675Z,4.20
2018-02-10T12:59:22.160Z,4.10
2018-02-10T13:01:49.747Z,4.20
2018-02-10T13:04:17.217Z,4.30
2018-02-10T13:06:44.799Z,4.40
2018-02-10T13:09:12.291Z,4.50
2018-02-10T13:11:39.750Z,4.60
2018-02-10T13:14:07.988Z,4.60
2018-02-10T13:16:35.460Z,4.60
2018-02-10T13:19:02.920Z,4.60
2018-02-10T13:21:30.408Z,4.60
2018-02-10T13:23:57.876Z,4.60
2018-02-10T13:26:25.464Z,4.70
2018-02-10T13:28:52.960Z,4.60
2018-02-10T13:31:21.197Z,4.60
2018-02-10T13:33:48.660Z,4.60
2018-02-10T13:36:16.164Z,4.60
2018-02-10T13:38:43.629Z,4.70
2018-02-10T13:41:12.010Z,4.80
2018-02-10T13:43:39.495Z,4.70
2018-02-10T13:46:08.464Z,4.60
2018-02-10T13:48:37.895Z,4.60
2018-02-10T13:51:05.364Z,4.60
2018-02-10T13:53:32.835Z,4.70
2018-02-10T13:56:00.409Z,4.80
2018-02-10T13:58:27.880Z,4.70
2018-02-10T14:00:55.455Z,4.80
2018-02-10T14:03:24.435Z,4.70
2018-02-10T14:05:51.924Z,4.70
2018-02-10T14:08:19.505Z,4.60
2018-02-10T14:10:46.988Z,4.60
2018-02-10T14:13:15.236Z,4.60
2018-02-10T14:15:42.715Z,4.60
2018-02-10T14:18:10.292Z,4.70
2018-02-10T14:20:37.763Z,4.70
2018-02-10T14:23:05.227Z,4.70
2018-02-10T14:25:32.712Z,4.70
2018-02-10T14:28:00.174Z,4.70
2018-02-10T14:30:27.756Z,4.70
2018-02-10T14:32:55.420Z,4.70
2018-02-10T14:35:22.892Z,4.70
2018-02-10T14:37:50.357Z,4.70
2018-02-10T14:40:17.928Z,4.80
2018-02-10T14:42:45.416Z,4.80
2018-02-10T14:45:13.644Z,4.80
2018-02-10T14:47:41.111Z,4.70
2018-02-10T14:50:08.608Z,4.80
2018-02-10T14:52:36.080Z,4.80
2018-02-10T14:55:03.562Z,4.70
2018-02-10T14:57:31.028Z,4.60
2018-02-10T14:59:58.487Z,4.50
2018-02-10T15:02:25.965Z,4.40
2018-02-10T15:04:53.440Z,4.40
2018-02-10T15:07:20.909Z,4.40
2018-02-10T15:09:48.372Z,4.40
2018-02-10T15:12:15.864Z,4.50
2018-02-10T15:14:43.430Z,4.60
2018-02-10T15:17:10.900Z,4.80
2018-02-10T15:19:38.392Z,4.80
2018-02-10T15:22:06.655Z,4.80
2018-02-10T15:24:34.115Z,4.80
2018-02-10T15:27:01.612Z,4.80
2018-02-10T15:29:41.697Z,4.70
2018-02-10T15:32:21.179Z,4.70
2018-02-10T15:34:58.628Z,4.70
2018-02-10T15:37:26.881Z,4.80
2018-02-10T15:39:54.367Z,4.80
2018-02-10T15:42:21.851Z,4.70
2018-02-10T15:44:50.129Z,4.70
2018-02-10T15:47:17.604Z,4.70
2018-02-10T15:49:45.211Z,4.70
2018-02-10T15:52:12.696Z,4.70
2018-02-10T15:54:40.213Z,4.60
2018-02-10T15:57:07.779Z,4.60
2018-02-10T15:59:35.345Z,4.60
2018-02-10T16:02:02.809Z,4.60
2018-02-10T16:04:30.292Z,4.70
2018-02-10T16:06:57.866Z,4.60
2018-02-10T16:09:25.336Z,4.70
2018-02-10T16:11:52.809Z,4.80
2018-02-10T16:14:20.464Z,4.80
2018-02-10T16:16:47.935Z,4.90
2018-02-10T16:19:15.392Z,4.90
2018-02-10T16:21:42.860Z,4.90
2018-02-10T16:24:10.344Z,5.10
2018-02-10T16:26:37.812Z,5.10
2018-02-10T16:29:05.295Z,5.20
2018-02-10T16:31:32.863Z,5.20
2018-02-10T16:34:00.340Z,5.30
2018-02-10T16:36:27.805Z,5.30
2018-02-10T16:38:55.367Z,5.30
2018-02-10T16:41:22.841Z,5.30
2018-02-10T16:43:50.324Z,5.30
2018-02-10T16:46:17.788Z,5.30
2018-02-10T16:48:45.400Z,5.30
2018-02-10T16:51:12.902Z,5.30
2018-02-10T16:53:40.492Z,5.30
2018-02-10T16:56:07.967Z,5.30
2018-02-10T16:58:35.536Z,5.30
2018-02-10T17:01:03.156Z,5.20
2018-02-10T17:03:31.380Z,5.10
2018-02-10T17:05:58.868Z,5.10
2018-02-10T17:08:26.331Z,5.10
2018-02-10T17:10:53.816Z,5.10
2018-02-10T17:13:21.387Z,5.00
2018-02-10T17:15:48.876Z,5.10
2018-02-10T17:18:17.116Z,5.10
2018-02-10T17:20:44.596Z,5.10
2018-02-10T17:23:12.172Z,5.10
2018-02-10T17:25:39.648Z,5.20
2018-02-10T17:28:07.220Z,5.20
2018-02-10T17:30:34.689Z,5.20
2018-02-10T17:33:02.256Z,5.30
2018-02-10T17:35:29.728Z,5.20
2018-02-10T17:37:57.230Z,5.30
2018-02-10T17:40:25.500Z,5.20
2018-02-10T17:42:52.976Z,5.20
2018-02-10T17:45:20.444Z,5.20
2018-02-10T17:47:47.998Z,5.10
2018-02-10T17:50:15.473Z,5.00
2018-02-10T17:52:42.941Z,5.00
2018-02-10T17:55:10.408Z,5.00
2018-02-10T17:57:37.978Z,4.90
2018-02-10T18:00:05.663Z,4.90
2018-02-10T18:02:33.220Z,5.00
2018-02-10T18:05:00.743Z,5.00
2018-02-10T18:07:28.991Z,5.00
2018-02-10T18:09:56.552Z,4.90
2018-02-10T18:12:24.125Z,4.90
2018-02-10T18:14:51.588Z,4.90
2018-02-10T18:17:19.053Z,4.90
2018-02-10T18:19:46.539Z,5.00
2018-02-10T18:22:14.027Z,5.00
2018-02-10T18:24:41.558Z,5.10
2018-02-10T18:27:09.044Z,5.00
2018-02-10T18:29:36.508Z,5.00
2018-02-10T18:32:04.238Z,5.00
2018-02-10T18:34:32.457Z,5.00
2018-02-10T18:36:59.919Z,5.00
2018-02-10T18:39:27.390Z,4.90
2018-02-10T18:41:54.878Z,4.80
2018-02-10T18:44:22.368Z,4.80
2018-02-10T18:46:49.929Z,4.70
2018-02-10T18:49:17.400Z,4.70
2018-02-10T18:51:44.883Z,4.70
2018-02-10T18:54:12.345Z,4.60
2018-02-10T18:56:39.904Z,4.50
2018-02-10T18:59:07.384Z,4.40
2018-02-10T19:01:34.856Z,4.30
2018-02-10T19:04:02.328Z,4.20
2018-02-10T19:06:29.820Z,4.20
2018-02-10T19:08:58.092Z,4.00
2018-02-10T19:11:25.571Z,4.00
2018-02-10T19:13:53.804Z,4.00
2018-02-10T19:16:21.453Z,4.00
2018-02-10T19:18:49.696Z,4.00
2018-02-10T19:21:17.940Z,4.00
2018-02-10T19:23:45.436Z,4.00
2018-02-10T19:26:12.918Z,4.00
2018-02-10T19:28:40.380Z,3.90
2018-02-10T19:31:07.856Z,3.90
2018-02-10T19:33:35.335Z,3.90
2018-02-10T19:36:02.797Z,3.90
2018-02-10T19:38:30.277Z,3.90
2018-02-10T19:40:57.868Z,3.90
2018-02-10T19:43:25.318Z,3.90
2018-02-10T19:45:52.880Z,3.80
2018-02-10T19:48:20.365Z,3.80
2018-02-10T19:50:47.833Z,3.80
2018-02-10T19:53:15.329Z,3.80
2018-02-10T19:55:43.585Z,3.70
2018-02-10T19:58:11.054Z,3.70
2018-02-10T20:00:38.616Z,3.70
2018-02-10T20:03:06.084Z,3.70
2018-02-10T20:05:33.760Z,3.70
2018-02-10T20:08:01.252Z,3.70
2018-02-10T20:10:28.716Z,3.70
2018-02-10T20:12:56.199Z,3.70
2018-02-10T20:15:24.467Z,3.80
2018-02-10T20:17:52.081Z,3.70
2018-02-10T20:20:20.370Z,3.70
2018-02-10T20:22:48.620Z,3.80
2018-02-10T20:25:16.184Z,3.80
2018-02-10T20:27:43.652Z,3.80
2018-02-10T20:30:11.220Z,3.70
2018-02-10T20:32:38.701Z,3.70
2018-02-10T20:35:06.169Z,3.70
2018-02-10T20:37:33.654Z,3.70
2018-02-10T20:40:01.120Z,3.70
2018-02-10T20:42:28.600Z,3.70
2018-02-10T20:44:56.960Z,3.70
2018-02-10T20:47:24.424Z,3.70
2018-02-10T20:49:51.880Z,3.70
2018-02-10T20:52:19.352Z,3.70
2018-02-10T20:54:46.820Z,3.70
2018-02-10T20:57:14.340Z,3.70
2018-02-10T20:59:42.605Z,3.70
2018-02-10T21:02:10.064Z,3.70
2018-02-10T21:04:37.540Z,3.70
2018-02-10T21:07:05.104Z,3.60
2018-02-10T21:09:32.568Z,3.60
2018-02-10T21:12:00.050Z,3.60
2018-02-10T21:14:27.524Z,3.60
2018-02-10T21:16:55.016Z,3.60
2018-02-10T21:19:23.287Z,3.60
2018-02-10T21:21:50.848Z,3.50
2018-02-10T21:24:18.419Z,3.60
2018-02-10T21:26:45.913Z,3.60
2018-02-10T21:29:14.221Z,3.50
2018-02-10T21:31:41.752Z,3.50
2018-02-10T21:34:09.230Z,3.50
2018-02-10T21:36:36.692Z,3.50
2018-02-10T21:39:04.157Z,3.40
2018-02-10T21:41:31.636Z,3.40
2018-02-10T21:43:59.105Z,3.40
2018-02-10T21:46:26.580Z,3.30
2018-02-10T21:48:54.044Z,3.40
2018-02-10T21:51:21.515Z,3.40
2018-02-10T21:53:49.112Z,3.40
2018-02-10T21:56:16.647Z,3.30
2018-02-10T21:58:44.113Z,3.40
2018-02-10T22:01:11.924Z,3.40
2018-02-10T22:03:40.164Z,3.30
2018-02-10T22:06:07.629Z,3.30
2018-02-10T22:08:35.092Z,3.30
2018-02-10T22:11:02.553Z,3.30
2018-02-10T22:13:30.060Z,3.30
2018-02-10T22:15:57.524Z,3.30
2018-02-10T22:18:25.012Z,3.30
2018-02-10T22:20:52.506Z,3.30
2018-02-10T22:23:20.769Z,3.40
2018-02-10T22:25:48.336Z,3.40
2018-02-10T22:28:15.804Z,3.40
2018-02-10T22:30:43.385Z,3.40
2018-02-10T22:33:10.848Z,3.40
2018-02-10T22:35:38.427Z,3.40
2018-02-10T22:38:05.984Z,3.40
2018-02-10T22:40:33.444Z,3.50
2018-02-10T22:43:00.924Z,3.50
2018-02-10T22:45:28.499Z,3.50
2018-02-10T22:47:55.976Z,3.50
2018-02-10T22:50:23.536Z,3.60
2018-02-10T22:52:51.108Z,3.60
2018-02-10T22:55:18.575Z,3.60
2018-02-10T22:57:46.036Z,3.50
2018-02-10T23:00:13.516Z,3.60
2018-02-10T23:02:41.004Z,3.50
2018-02-10T23:05:08.557Z,3.50
2018-02-10T23:07:36.036Z,3.50
2018-02-10T23:10:03.492Z,3.50
2018-02-10T23:12:30.964Z,3.50
2018-02-10T23:14:58.549Z,3.60
2018-02-10T23:17:26.016Z,3.60
2018-02-10T23:19:53.584Z,3.60
2018-02-10T23:22:21.040Z,3.60
2018-02-10T23:24:48.528Z,3.60
2018-02-10T23:27:16.017Z,3.60
2018-02-10T23:29:44.282Z,3.50
2018-02-10T23:32:11.795Z,3.50
2018-02-10T23:34:40.036Z,3.50
2018-02-10T23:37:07.504Z,3.50
2018-02-10T23:39:34.975Z,3.60
2018-02-10T23:42:02.495Z,3.60
2018-02-10T23:44:30.727Z,3.60
2018-02-10T23:46:58.208Z,3.60
2018-02-10T23:49:25.664Z,3.60
2018-02-10T23:51:53.137Z,3.70
2018-02-10T23:54:20.607Z,3.70
2018-02-10T23:56:48.080Z,3.70
2018-02-10T23:59:15.664Z,3.80
